sensor_id;sensor_type;location;lat;lon;timestamp;pressure;altitude;pressure_sealevel;temperature;humidity
84878;BME280;75140;47.754;8.840;2024-03-08T00:01:40;96442.56;;;3.97;87.48
84878;BME280;75140;47.754;8.840;2024-03-08T00:04:06;96438.28;;;3.96;87.52
84878;BME280;75140;47.754;8.840;2024-03-08T00:06:32;96443.75;;;3.85;87.46
84878;BME280;75140;47.754;8.840;2024-03-08T00:08:57;96445.78;;;3.91;87.97
84878;BME280;75140;47.754;8.840;2024-03-08T00:11:22;96449.38;;;3.90;87.34
84878;BME280;75140;47.754;8.840;2024-03-08T00:13:51;96443.31;;;3.90;87.88
84878;BME280;75140;47.754;8.840;2024-03-08T00:16:17;96448.56;;;3.90;86.33
84878;BME280;75140;47.754;8.840;2024-03-08T00:18:44;96448.41;;;3.91;86.85
84878;BME280;75140;47.754;8.840;2024-03-08T00:21:10;96440.97;;;3.87;87.64
84878;BME280;75140;47.754;8.840;2024-03-08T00:23:37;96441.97;;;3.86;86.83
84878;BME280;75140;47.754;8.840;2024-03-08T00:26:03;96433.19;;;3.77;87.69
84878;BME280;75140;47.754;8.840;2024-03-08T00:28:29;96440.66;;;3.72;87.27
84878;BME280;75140;47.754;8.840;2024-03-08T00:30:56;96440.75;;;3.80;86.91
84878;BME280;75140;47.754;8.840;2024-03-08T00:33:21;96435.50;;;3.80;86.66
84878;BME280;75140;47.754;8.840;2024-03-08T00:35:46;96432.88;;;3.80;87.24
84878;BME280;75140;47.754;8.840;2024-03-08T00:38:12;96428.22;;;3.74;86.05
84878;BME280;75140;47.754;8.840;2024-03-08T00:40:38;96424.63;;;3.75;86.46
84878;BME280;75140;47.754;8.840;2024-03-08T00:43:04;96424.03;;;3.81;86.09
84878;BME280;75140;47.754;8.840;2024-03-08T00:45:30;96426.41;;;3.75;85.96
84878;BME280;75140;47.754;8.840;2024-03-08T00:47:55;96419.75;;;3.80;86.06
84878;BME280;75140;47.754;8.840;2024-03-08T00:50:21;96419.06;;;3.78;86.72
84878;BME280;75140;47.754;8.840;2024-03-08T00:52:46;96425.06;;;3.71;86.32
84878;BME280;75140;47.754;8.840;2024-03-08T00:55:11;96416.66;;;3.67;86.80
84878;BME280;75140;47.754;8.840;2024-03-08T00:57:37;96416.66;;;3.67;86.61
84878;BME280;75140;47.754;8.840;2024-03-08T01:00:05;96406.25;;;3.57;86.51
84878;BME280;75140;47.754;8.840;2024-03-08T01:02:34;96407.34;;;3.55;86.53
84878;BME280;75140;47.754;8.840;2024-03-08T01:05:00;96401.00;;;3.57;87.63
84878;BME280;75140;47.754;8.840;2024-03-08T01:07:26;96406.00;;;3.51;86.28
84878;BME280;75140;47.754;8.840;2024-03-08T01:09:51;96408.34;;;3.54;87.02
84878;BME280;75140;47.754;8.840;2024-03-08T01:12:16;96406.53;;;3.54;86.62
84878;BME280;75140;47.754;8.840;2024-03-08T01:14:42;96405.72;;;3.54;86.69
84878;BME280;75140;47.754;8.840;2024-03-08T01:17:07;96402.72;;;3.49;86.87
84878;BME280;75140;47.754;8.840;2024-03-08T01:19:34;96397.84;;;3.54;85.96
84878;BME280;75140;47.754;8.840;2024-03-08T01:22:00;96394.31;;;3.45;85.79
84878;BME280;75140;47.754;8.840;2024-03-08T01:24:25;96398.06;;;3.60;85.39
84878;BME280;75140;47.754;8.840;2024-03-08T01:26:50;96394.41;;;3.53;85.67
84878;BME280;75140;47.754;8.840;2024-03-08T01:29:16;96395.50;;;3.51;84.98
84878;BME280;75140;47.754;8.840;2024-03-08T01:31:41;96391.91;;;3.52;85.89
84878;BME280;75140;47.754;8.840;2024-03-08T01:34:06;96386.81;;;3.50;86.36
84878;BME280;75140;47.754;8.840;2024-03-08T01:36:32;96377.81;;;3.53;85.42
84878;BME280;75140;47.754;8.840;2024-03-08T01:38:57;96371.66;;;3.44;86.10
84878;BME280;75140;47.754;8.840;2024-03-08T01:41:23;96378.13;;;3.50;85.81
84878;BME280;75140;47.754;8.840;2024-03-08T01:43:48;96375.34;;;3.51;85.87
84878;BME280;75140;47.754;8.840;2024-03-08T01:46:18;96373.19;;;3.47;85.68
84878;BME280;75140;47.754;8.840;2024-03-08T01:48:44;96369.88;;;3.45;86.06
84878;BME280;75140;47.754;8.840;2024-03-08T01:51:10;96355.78;;;3.46;86.31
84878;BME280;75140;47.754;8.840;2024-03-08T01:53:37;96357.22;;;3.40;85.29
84878;BME280;75140;47.754;8.840;2024-03-08T01:56:03;96349.63;;;3.37;85.76
84878;BME280;75140;47.754;8.840;2024-03-08T01:58:29;96350.16;;;3.41;85.45
84878;BME280;75140;47.754;8.840;2024-03-08T02:00:56;96351.66;;;3.43;85.44
84878;BME280;75140;47.754;8.840;2024-03-08T02:03:23;96352.47;;;3.44;85.46
84878;BME280;75140;47.754;8.840;2024-03-08T02:05:48;96346.19;;;3.37;85.42
84878;BME280;75140;47.754;8.840;2024-03-08T02:08:14;96349.47;;;3.39;85.57
84878;BME280;75140;47.754;8.840;2024-03-08T02:10:43;96343.69;;;3.35;85.04
84878;BME280;75140;47.754;8.840;2024-03-08T02:13:09;96345.06;;;3.39;85.21
84878;BME280;75140;47.754;8.840;2024-03-08T02:15:54;96336.81;;;3.34;84.98
84878;BME280;75140;47.754;8.840;2024-03-08T02:18:20;96338.59;;;3.34;85.19
84878;BME280;75140;47.754;8.840;2024-03-08T02:20:54;96338.44;;;3.18;85.91
84878;BME280;75140;47.754;8.840;2024-03-08T02:23:20;96330.28;;;3.21;85.72
84878;BME280;75140;47.754;8.840;2024-03-08T02:25:46;96326.53;;;3.23;85.90
84878;BME280;75140;47.754;8.840;2024-03-08T02:28:12;96316.78;;;3.16;85.79
84878;BME280;75140;47.754;8.840;2024-03-08T02:30:38;96328.09;;;3.16;85.67
84878;BME280;75140;47.754;8.840;2024-03-08T02:33:04;96322.41;;;3.21;85.73
84878;BME280;75140;47.754;8.840;2024-03-08T02:35:30;96318.00;;;3.21;86.36
84878;BME280;75140;47.754;8.840;2024-03-08T02:37:55;96314.91;;;3.26;85.87
84878;BME280;75140;47.754;8.840;2024-03-08T02:40:21;96313.19;;;3.17;86.20
84878;BME280;75140;47.754;8.840;2024-03-08T02:42:47;96313.56;;;3.22;85.95
84878;BME280;75140;47.754;8.840;2024-03-08T02:45:12;96315.81;;;3.17;86.22
84878;BME280;75140;47.754;8.840;2024-03-08T02:47:38;96315.94;;;3.15;85.20
84878;BME280;75140;47.754;8.840;2024-03-08T02:50:05;96315.72;;;3.09;86.34
84878;BME280;75140;47.754;8.840;2024-03-08T02:52:35;96304.28;;;3.10;85.88
84878;BME280;75140;47.754;8.840;2024-03-08T02:55:02;96304.16;;;3.02;86.20
84878;BME280;75140;47.754;8.840;2024-03-08T02:57:27;96311.34;;;3.00;85.79
84878;BME280;75140;47.754;8.840;2024-03-08T02:59:53;96303.06;;;3.04;86.01
84878;BME280;75140;47.754;8.840;2024-03-08T03:02:19;96292.28;;;3.07;85.74
84878;BME280;75140;47.754;8.840;2024-03-08T03:04:44;96295.63;;;3.00;86.53
84878;BME280;75140;47.754;8.840;2024-03-08T03:07:09;96287.41;;;3.12;86.55
84878;BME280;75140;47.754;8.840;2024-03-08T03:09:36;96290.50;;;3.08;85.62
84878;BME280;75140;47.754;8.840;2024-03-08T03:12:01;96291.22;;;3.00;86.39
84878;BME280;75140;47.754;8.840;2024-03-08T03:14:27;96290.38;;;3.00;85.76
84878;BME280;75140;47.754;8.840;2024-03-08T03:16:53;96282.16;;;3.12;86.25
84878;BME280;75140;47.754;8.840;2024-03-08T03:19:19;96287.91;;;2.98;86.13
84878;BME280;75140;47.754;8.840;2024-03-08T03:21:45;96270.31;;;2.91;85.67
84878;BME280;75140;47.754;8.840;2024-03-08T03:24:11;96274.91;;;3.06;85.99
84878;BME280;75140;47.754;8.840;2024-03-08T03:26:40;96280.97;;;3.07;85.66
84878;BME280;75140;47.754;8.840;2024-03-08T03:29:06;96273.91;;;2.90;86.34
84878;BME280;75140;47.754;8.840;2024-03-08T03:31:35;96281.09;;;2.88;86.61
84878;BME280;75140;47.754;8.840;2024-03-08T03:34:01;96271.38;;;2.98;86.33
84878;BME280;75140;47.754;8.840;2024-03-08T03:36:32;96266.56;;;2.93;85.46
84878;BME280;75140;47.754;8.840;2024-03-08T03:38:58;96261.41;;;2.84;86.76
84878;BME280;75140;47.754;8.840;2024-03-08T03:41:34;96260.75;;;2.99;86.03
84878;BME280;75140;47.754;8.840;2024-03-08T03:44:00;96255.03;;;3.04;86.71
84878;BME280;75140;47.754;8.840;2024-03-08T03:46:25;96264.28;;;3.08;86.63
84878;BME280;75140;47.754;8.840;2024-03-08T03:48:52;96264.28;;;3.08;86.30
84878;BME280;75140;47.754;8.840;2024-03-08T03:51:18;96252.50;;;3.12;85.31
84878;BME280;75140;47.754;8.840;2024-03-08T03:53:44;96254.53;;;3.18;86.31
84878;BME280;75140;47.754;8.840;2024-03-08T03:56:09;96257.53;;;3.23;85.25
84878;BME280;75140;47.754;8.840;2024-03-08T03:58:36;96258.13;;;3.17;85.10
84878;BME280;75140;47.754;8.840;2024-03-08T04:01:01;96248.38;;;3.09;85.13
84878;BME280;75140;47.754;8.840;2024-03-08T04:03:26;96250.47;;;3.06;86.27
84878;BME280;75140;47.754;8.840;2024-03-08T04:05:52;96246.22;;;3.22;85.64
84878;BME280;75140;47.754;8.840;2024-03-08T04:08:17;96247.50;;;3.18;85.79
84878;BME280;75140;47.754;8.840;2024-03-08T04:10:42;96253.09;;;3.06;86.24
84878;BME280;75140;47.754;8.840;2024-03-08T04:13:08;96246.19;;;3.05;85.99
84878;BME280;75140;47.754;8.840;2024-03-08T04:15:34;96248.38;;;3.09;86.45
84878;BME280;75140;47.754;8.840;2024-03-08T04:18:00;96258.56;;;3.12;85.86
84878;BME280;75140;47.754;8.840;2024-03-08T04:20:26;96249.50;;;3.07;86.11
84878;BME280;75140;47.754;8.840;2024-03-08T04:22:51;96247.34;;;3.02;85.85
84878;BME280;75140;47.754;8.840;2024-03-08T04:25:16;96248.53;;;3.08;86.39
84878;BME280;75140;47.754;8.840;2024-03-08T04:27:42;96245.63;;;3.11;86.17
84878;BME280;75140;47.754;8.840;2024-03-08T04:30:08;96244.34;;;3.15;85.97
84878;BME280;75140;47.754;8.840;2024-03-08T04:32:33;96242.09;;;3.02;85.90
84878;BME280;75140;47.754;8.840;2024-03-08T04:34:59;96245.09;;;3.07;85.95
84878;BME280;75140;47.754;8.840;2024-03-08T04:37:26;96244.88;;;3.18;85.74
84878;BME280;75140;47.754;8.840;2024-03-08T04:39:51;96245.63;;;3.11;86.48
84878;BME280;75140;47.754;8.840;2024-03-08T04:42:17;96237.50;;;3.22;85.89
84878;BME280;75140;47.754;8.840;2024-03-08T04:44:43;96234.25;;;3.20;86.05
84878;BME280;75140;47.754;8.840;2024-03-08T04:47:08;96231.25;;;3.15;86.35
84878;BME280;75140;47.754;8.840;2024-03-08T04:49:35;96238.28;;;3.14;86.41
84878;BME280;75140;47.754;8.840;2024-03-08T04:52:02;96233.78;;;3.24;86.27
84878;BME280;75140;47.754;8.840;2024-03-08T04:54:28;96226.38;;;3.20;86.01
84878;BME280;75140;47.754;8.840;2024-03-08T04:56:53;96234.16;;;3.29;86.42
84878;BME280;75140;47.754;8.840;2024-03-08T04:59:19;96225.06;;;3.24;85.63
84878;BME280;75140;47.754;8.840;2024-03-08T05:01:44;96227.31;;;3.19;85.93
84878;BME280;75140;47.754;8.840;2024-03-08T05:04:09;96229.16;;;3.18;86.04
84878;BME280;75140;47.754;8.840;2024-03-08T05:06:35;96231.09;;;3.16;85.71
84878;BME280;75140;47.754;8.840;2024-03-08T05:09:01;96232.50;;;3.11;85.93
84878;BME280;75140;47.754;8.840;2024-03-08T05:11:31;96234.06;;;3.04;86.39
84878;BME280;75140;47.754;8.840;2024-03-08T05:13:56;96226.59;;;3.09;86.00
84878;BME280;75140;47.754;8.840;2024-03-08T05:16:24;96224.56;;;3.03;86.46
84878;BME280;75140;47.754;8.840;2024-03-08T05:18:49;96224.84;;;3.00;87.15
84878;BME280;75140;47.754;8.840;2024-03-08T05:21:16;96222.47;;;3.06;86.65
84878;BME280;75140;47.754;8.840;2024-03-08T05:23:45;96221.34;;;3.09;86.31
84878;BME280;75140;47.754;8.840;2024-03-08T05:26:10;96210.94;;;2.99;86.57
84878;BME280;75140;47.754;8.840;2024-03-08T05:28:36;96226.16;;;2.96;86.98
84878;BME280;75140;47.754;8.840;2024-03-08T05:31:01;96226.81;;;2.98;86.37
84878;BME280;75140;47.754;8.840;2024-03-08T05:33:26;96227.19;;;3.03;86.47
84878;BME280;75140;47.754;8.840;2024-03-08T05:35:52;96225.00;;;2.98;86.79
84878;BME280;75140;47.754;8.840;2024-03-08T05:38:17;96218.97;;;2.98;86.31
84878;BME280;75140;47.754;8.840;2024-03-08T05:40:42;96219.22;;;2.95;86.61
84878;BME280;75140;47.754;8.840;2024-03-08T05:43:08;96218.22;;;2.88;86.90
84878;BME280;75140;47.754;8.840;2024-03-08T05:45:33;96219.91;;;2.97;86.55
84878;BME280;75140;47.754;8.840;2024-03-08T05:47:59;96221.56;;;2.98;87.10
84878;BME280;75140;47.754;8.840;2024-03-08T05:50:24;96224.19;;;2.98;86.26
84878;BME280;75140;47.754;8.840;2024-03-08T05:52:50;96218.97;;;2.98;86.41
84878;BME280;75140;47.754;8.840;2024-03-08T05:55:15;96221.94;;;2.85;86.71
84878;BME280;75140;47.754;8.840;2024-03-08T05:57:44;96219.69;;;2.90;87.19
84878;BME280;75140;47.754;8.840;2024-03-08T06:00:10;96217.41;;;2.78;87.34
84878;BME280;75140;47.754;8.840;2024-03-08T06:02:41;96215.72;;;2.86;87.87
84878;BME280;75140;47.754;8.840;2024-03-08T06:05:10;96215.97;;;2.93;86.38
84878;BME280;75140;47.754;8.840;2024-03-08T06:07:36;96215.44;;;2.89;86.53
84878;BME280;75140;47.754;8.840;2024-03-08T06:10:06;96215.19;;;2.83;87.18
84878;BME280;75140;47.754;8.840;2024-03-08T06:12:32;96211.44;;;2.85;86.75
84878;BME280;75140;47.754;8.840;2024-03-08T06:15:02;96215.34;;;2.81;87.24
84878;BME280;75140;47.754;8.840;2024-03-08T06:17:29;96214.81;;;2.78;87.94
84878;BME280;75140;47.754;8.840;2024-03-08T06:19:54;96211.28;;;2.87;86.76
84878;BME280;75140;47.754;8.840;2024-03-08T06:22:20;96213.53;;;2.82;86.83
84878;BME280;75140;47.754;8.840;2024-03-08T06:24:45;96214.75;;;2.87;86.96
84878;BME280;75140;47.754;8.840;2024-03-08T06:27:12;96204.56;;;2.84;87.62
84878;BME280;75140;47.754;8.840;2024-03-08T06:29:37;96215.28;;;2.91;87.14
84878;BME280;75140;47.754;8.840;2024-03-08T06:32:03;96212.56;;;2.83;87.25
84878;BME280;75140;47.754;8.840;2024-03-08T06:34:28;96213.91;;;2.87;86.57
84878;BME280;75140;47.754;8.840;2024-03-08T06:36:53;96206.75;;;2.89;86.92
84878;BME280;75140;47.754;8.840;2024-03-08T06:39:26;96209.94;;;2.83;87.12
84878;BME280;75140;47.754;8.840;2024-03-08T06:41:51;96212.66;;;2.91;86.59
84878;BME280;75140;47.754;8.840;2024-03-08T06:44:16;96211.44;;;2.85;86.88
84878;BME280;75140;47.754;8.840;2024-03-08T06:46:42;96224.31;;;2.96;87.44
84878;BME280;75140;47.754;8.840;2024-03-08T06:49:07;96219.75;;;2.98;86.72
84878;BME280;75140;47.754;8.840;2024-03-08T06:51:34;96217.13;;;2.98;86.85
84878;BME280;75140;47.754;8.840;2024-03-08T06:54:00;96224.78;;;2.92;86.49
84878;BME280;75140;47.754;8.840;2024-03-08T06:56:25;96228.47;;;2.99;86.35
84878;BME280;75140;47.754;8.840;2024-03-08T06:58:51;96214.06;;;2.85;86.52
84878;BME280;75140;47.754;8.840;2024-03-08T07:01:16;96218.34;;;3.04;87.14
84878;BME280;75140;47.754;8.840;2024-03-08T07:03:42;96215.25;;;3.08;86.37
84878;BME280;75140;47.754;8.840;2024-03-08T07:06:10;96215.03;;;3.02;86.59
84878;BME280;75140;47.754;8.840;2024-03-08T07:08:36;96216.78;;;3.11;86.32
84878;BME280;75140;47.754;8.840;2024-03-08T07:11:01;96212.28;;;3.03;87.06
84878;BME280;75140;47.754;8.840;2024-03-08T07:13:26;96206.66;;;2.98;87.02
84878;BME280;75140;47.754;8.840;2024-03-08T07:15:55;96209.50;;;3.05;86.05
84878;BME280;75140;47.754;8.840;2024-03-08T07:18:20;96205.97;;;3.14;86.28
84878;BME280;75140;47.754;8.840;2024-03-08T07:20:47;96208.00;;;3.20;87.19
84878;BME280;75140;47.754;8.840;2024-03-08T07:23:12;96197.75;;;3.09;86.48
84878;BME280;75140;47.754;8.840;2024-03-08T07:25:58;96202.00;;;3.27;85.68
84878;BME280;75140;47.754;8.840;2024-03-08T07:28:23;96199.88;;;3.48;85.96
84878;BME280;75140;47.754;8.840;2024-03-08T07:30:48;96189.97;;;3.42;85.38
84878;BME280;75140;47.754;8.840;2024-03-08T07:33:14;96199.66;;;3.42;85.81
84878;BME280;75140;47.754;8.840;2024-03-08T07:35:40;96198.72;;;3.51;85.38
84878;BME280;75140;47.754;8.840;2024-03-08T07:38:08;96185.63;;;3.51;84.25
84878;BME280;75140;47.754;8.840;2024-03-08T07:40:38;96184.34;;;3.55;85.63
84878;BME280;75140;47.754;8.840;2024-03-08T07:43:08;96184.81;;;3.50;85.18
84878;BME280;75140;47.754;8.840;2024-03-08T07:45:33;96186.13;;;3.54;84.55
84878;BME280;75140;47.754;8.840;2024-03-08T07:47:59;96184.50;;;3.53;84.81
84878;BME280;75140;47.754;8.840;2024-03-08T07:50:25;96181.56;;;3.56;85.39
84878;BME280;75140;47.754;8.840;2024-03-08T07:52:50;96187.84;;;3.63;84.83
84878;BME280;75140;47.754;8.840;2024-03-08T07:55:16;96192.53;;;3.52;85.37
84878;BME280;75140;47.754;8.840;2024-03-08T07:57:41;96193.31;;;3.52;85.02
84878;BME280;75140;47.754;8.840;2024-03-08T08:00:08;96185.22;;;3.63;84.72
84878;BME280;75140;47.754;8.840;2024-03-08T08:02:34;96183.59;;;3.62;85.06
84878;BME280;75140;47.754;8.840;2024-03-08T08:05:01;96192.41;;;3.87;84.51
84878;BME280;75140;47.754;8.840;2024-03-08T08:07:26;96190.66;;;3.70;84.25
84878;BME280;75140;47.754;8.840;2024-03-08T08:09:53;96190.34;;;3.73;84.38
84878;BME280;75140;47.754;8.840;2024-03-08T08:12:18;96183.78;;;3.69;84.69
84878;BME280;75140;47.754;8.840;2024-03-08T08:14:44;96179.94;;;3.55;84.27
84878;BME280;75140;47.754;8.840;2024-03-08T08:17:09;96189.59;;;3.55;85.17
84878;BME280;75140;47.754;8.840;2024-03-08T08:19:34;96184.38;;;3.63;84.35
84878;BME280;75140;47.754;8.840;2024-03-08T08:22:03;96171.81;;;3.75;84.89
84878;BME280;75140;47.754;8.840;2024-03-08T08:24:29;96171.44;;;3.95;83.76
84878;BME280;75140;47.754;8.840;2024-03-08T08:26:55;96170.31;;;3.98;83.73
84878;BME280;75140;47.754;8.840;2024-03-08T08:29:21;96171.38;;;3.79;84.00
84878;BME280;75140;47.754;8.840;2024-03-08T08:31:47;96172.84;;;3.82;83.72
84878;BME280;75140;47.754;8.840;2024-03-08T08:34:12;96166.13;;;3.79;84.18
84878;BME280;75140;47.754;8.840;2024-03-08T08:36:39;96165.06;;;3.64;84.07
84878;BME280;75140;47.754;8.840;2024-03-08T08:39:05;96165.69;;;3.92;83.78
84878;BME280;75140;47.754;8.840;2024-03-08T08:41:36;96173.16;;;3.79;83.49
84878;BME280;75140;47.754;8.840;2024-03-08T08:44:01;96165.66;;;3.84;83.95
84878;BME280;75140;47.754;8.840;2024-03-08T08:46:27;96161.28;;;3.92;83.78
84878;BME280;75140;47.754;8.840;2024-03-08T08:48:52;96157.69;;;3.93;84.04
84878;BME280;75140;47.754;8.840;2024-03-08T08:51:17;96151.81;;;4.07;82.82
84878;BME280;75140;47.754;8.840;2024-03-08T08:53:43;96159.34;;;4.02;82.99
84878;BME280;75140;47.754;8.840;2024-03-08T08:56:10;96163.56;;;3.95;83.73
84878;BME280;75140;47.754;8.840;2024-03-08T08:58:38;96152.13;;;3.96;83.12
84878;BME280;75140;47.754;8.840;2024-03-08T09:01:05;96156.81;;;4.18;82.74
84878;BME280;75140;47.754;8.840;2024-03-08T09:03:30;96151.41;;;4.28;82.00
84878;BME280;75140;47.754;8.840;2024-03-08T09:05:55;96149.44;;;4.22;81.81
84878;BME280;75140;47.754;8.840;2024-03-08T09:08:21;96140.38;;;4.16;82.54
84878;BME280;75140;47.754;8.840;2024-03-08T09:10:47;96153.59;;;3.99;83.52
84878;BME280;75140;47.754;8.840;2024-03-08T09:13:13;96146.28;;;4.10;83.79
84878;BME280;75140;47.754;8.840;2024-03-08T09:15:39;96140.69;;;4.13;81.92
84878;BME280;75140;47.754;8.840;2024-03-08T09:18:05;96142.56;;;3.95;83.63
84878;BME280;75140;47.754;8.840;2024-03-08T09:20:31;96137.72;;;4.08;82.01
84878;BME280;75140;47.754;8.840;2024-03-08T09:22:57;96137.06;;;4.06;81.86
84878;BME280;75140;47.754;8.840;2024-03-08T09:25:22;96142.41;;;4.30;81.93
84878;BME280;75140;47.754;8.840;2024-03-08T09:27:48;96134.53;;;4.30;82.00
84878;BME280;75140;47.754;8.840;2024-03-08T09:30:13;96131.81;;;4.14;81.84
84878;BME280;75140;47.754;8.840;2024-03-08T09:32:40;96129.97;;;4.48;82.16
84878;BME280;75140;47.754;8.840;2024-03-08T09:35:06;96127.66;;;4.45;80.81
84878;BME280;75140;47.754;8.840;2024-03-08T09:37:33;96115.63;;;4.27;80.89
84878;BME280;75140;47.754;8.840;2024-03-08T09:39:59;96109.69;;;4.17;81.13
84878;BME280;75140;47.754;8.840;2024-03-08T09:42:24;96113.47;;;4.22;81.17
84878;BME280;75140;47.754;8.840;2024-03-08T09:44:50;96114.13;;;4.16;81.30
84878;BME280;75140;47.754;8.840;2024-03-08T09:47:17;96118.53;;;4.16;81.88
84878;BME280;75140;47.754;8.840;2024-03-08T09:49:43;96114.47;;;4.29;81.25
84878;BME280;75140;47.754;8.840;2024-03-08T09:52:08;96112.84;;;4.28;81.87
84878;BME280;75140;47.754;8.840;2024-03-08T09:54:35;96114.19;;;4.32;80.25
84878;BME280;75140;47.754;8.840;2024-03-08T09:57:01;96107.59;;;4.28;80.49
84878;BME280;75140;47.754;8.840;2024-03-08T09:59:29;96110.81;;;4.14;81.45
84878;BME280;75140;47.754;8.840;2024-03-08T10:02:01;96104.88;;;4.04;81.81
84878;BME280;75140;47.754;8.840;2024-03-08T10:04:28;96110.09;;;4.46;80.64
84878;BME280;75140;47.754;8.840;2024-03-08T10:06:57;96111.16;;;4.11;80.36
84878;BME280;75140;47.754;8.840;2024-03-08T10:09:24;96112.16;;;4.18;80.71
84878;BME280;75140;47.754;8.840;2024-03-08T10:11:55;96100.38;;;4.30;79.32
84878;BME280;75140;47.754;8.840;2024-03-08T10:14:21;96104.28;;;4.26;80.69
84878;BME280;75140;47.754;8.840;2024-03-08T10:16:46;96097.59;;;4.40;81.92
84878;BME280;75140;47.754;8.840;2024-03-08T10:19:12;96084.28;;;4.33;80.48
84878;BME280;75140;47.754;8.840;2024-03-08T10:21:50;96085.91;;;4.26;81.52
84878;BME280;75140;47.754;8.840;2024-03-08T10:24:18;96082.66;;;4.56;79.86
84878;BME280;75140;47.754;8.840;2024-03-08T10:26:44;96089.63;;;4.81;80.46
84878;BME280;75140;47.754;8.840;2024-03-08T10:29:09;96086.28;;;4.63;80.27
84878;BME280;75140;47.754;8.840;2024-03-08T10:31:35;96084.16;;;4.59;80.63
84878;BME280;75140;47.754;8.840;2024-03-08T10:34:01;96077.28;;;4.58;80.40
84878;BME280;75140;47.754;8.840;2024-03-08T10:36:28;96078.06;;;4.58;80.49
84878;BME280;75140;47.754;8.840;2024-03-08T10:38:56;96070.84;;;4.52;79.22
84878;BME280;75140;47.754;8.840;2024-03-08T10:41:27;96075.78;;;4.47;80.81
84878;BME280;75140;47.754;8.840;2024-03-08T10:44:10;96071.66;;;4.45;80.52
84878;BME280;75140;47.754;8.840;2024-03-08T10:47:02;96076.13;;;4.68;79.46
84878;BME280;75140;47.754;8.840;2024-03-08T10:49:32;96077.78;;;4.77;79.74
84878;BME280;75140;47.754;8.840;2024-03-08T10:52:04;96075.66;;;4.73;79.72
84878;BME280;75140;47.754;8.840;2024-03-08T10:54:33;96085.00;;;4.59;79.09
84878;BME280;75140;47.754;8.840;2024-03-08T10:56:59;96073.19;;;4.71;79.39
84878;BME280;75140;47.754;8.840;2024-03-08T10:59:29;96068.88;;;4.78;79.75
84878;BME280;75140;47.754;8.840;2024-03-08T11:01:55;96065.63;;;4.76;78.96
84878;BME280;75140;47.754;8.840;2024-03-08T11:04:20;96069.88;;;5.02;78.69
84878;BME280;75140;47.754;8.840;2024-03-08T11:06:48;96072.66;;;5.16;78.28
84878;BME280;75140;47.754;8.840;2024-03-08T11:09:30;96064.13;;;4.98;77.69
84878;BME280;75140;47.754;8.840;2024-03-08T11:12:27;96066.25;;;4.78;78.83
84878;BME280;75140;47.754;8.840;2024-03-08T11:14:59;96061.00;;;4.95;78.11
84878;BME280;75140;47.754;8.840;2024-03-08T11:19:58;96052.44;;;5.01;78.02
84878;BME280;75140;47.754;8.840;2024-03-08T11:22:31;96045.06;;;5.12;78.10
84878;BME280;75140;47.754;8.840;2024-03-08T11:25:04;96034.31;;;5.30;77.08
84878;BME280;75140;47.754;8.840;2024-03-08T11:27:38;96045.72;;;5.06;79.05
84878;BME280;75140;47.754;8.840;2024-03-08T11:30:07;96038.25;;;5.34;77.07
84878;BME280;75140;47.754;8.840;2024-03-08T11:32:50;96037.31;;;5.19;77.45
84878;BME280;75140;47.754;8.840;2024-03-08T11:35:20;96038.78;;;5.21;77.19
84878;BME280;75140;47.754;8.840;2024-03-08T11:37:46;96031.06;;;5.28;76.86
84878;BME280;75140;47.754;8.840;2024-03-08T11:40:13;96036.34;;;5.04;77.14
84878;BME280;75140;47.754;8.840;2024-03-08T11:42:45;96028.78;;;5.09;77.38
84878;BME280;75140;47.754;8.840;2024-03-08T11:45:14;96019.75;;;5.03;77.59
84878;BME280;75140;47.754;8.840;2024-03-08T11:47:44;96017.31;;;4.94;77.41
84878;BME280;75140;47.754;8.840;2024-03-08T11:50:12;96010.72;;;4.98;77.45
84878;BME280;75140;47.754;8.840;2024-03-08T11:52:37;96008.72;;;5.16;77.18
84878;BME280;75140;47.754;8.840;2024-03-08T11:55:06;96006.06;;;5.24;77.08
84878;BME280;75140;47.754;8.840;2024-03-08T11:57:31;96009.22;;;5.03;76.72
84878;BME280;75140;47.754;8.840;2024-03-08T11:59:58;96003.72;;;5.37;76.96
84878;BME280;75140;47.754;8.840;2024-03-08T12:02:32;95997.41;;;5.54;76.13
84878;BME280;75140;47.754;8.840;2024-03-08T12:05:01;95996.78;;;5.44;75.77
84878;BME280;75140;47.754;8.840;2024-03-08T12:07:29;95984.63;;;5.43;77.01
84878;BME280;75140;47.754;8.840;2024-03-08T12:10:17;95994.53;;;5.33;76.37
84878;BME280;75140;47.754;8.840;2024-03-08T12:12:45;95987.59;;;5.40;76.12
84878;BME280;75140;47.754;8.840;2024-03-08T12:15:12;95977.69;;;5.50;76.41
84878;BME280;75140;47.754;8.840;2024-03-08T12:17:38;95978.44;;;5.28;77.07
84878;BME280;75140;47.754;8.840;2024-03-08T12:20:21;95980.34;;;5.50;76.82
84878;BME280;75140;47.754;8.840;2024-03-08T12:22:47;95978.53;;;5.81;76.31
84878;BME280;75140;47.754;8.840;2024-03-08T12:25:14;95978.47;;;5.97;73.57
84878;BME280;75140;47.754;8.840;2024-03-08T12:27:40;95970.22;;;6.00;74.49
84878;BME280;75140;47.754;8.840;2024-03-08T12:30:35;95966.16;;;5.89;74.18
84878;BME280;75140;47.754;8.840;2024-03-08T12:33:02;95973.25;;;5.81;74.64
84878;BME280;75140;47.754;8.840;2024-03-08T12:35:29;95971.78;;;5.86;75.12
84878;BME280;75140;47.754;8.840;2024-03-08T12:37:56;95971.38;;;5.67;74.99
84878;BME280;75140;47.754;8.840;2024-03-08T12:40:32;95971.38;;;5.59;75.40
84878;BME280;75140;47.754;8.840;2024-03-08T12:43:00;95974.72;;;5.53;75.53
84878;BME280;75140;47.754;8.840;2024-03-08T12:45:26;95969.66;;;5.82;74.67
84878;BME280;75140;47.754;8.840;2024-03-08T12:47:52;95960.44;;;5.47;75.90
84878;BME280;75140;47.754;8.840;2024-03-08T12:50:19;95947.28;;;5.47;75.51
84878;BME280;75140;47.754;8.840;2024-03-08T12:52:44;95951.09;;;5.75;75.69
84878;BME280;75140;47.754;8.840;2024-03-08T12:55:10;95946.31;;;5.71;75.57
84878;BME280;75140;47.754;8.840;2024-03-08T12:57:36;95931.84;;;5.75;74.36
84878;BME280;75140;47.754;8.840;2024-03-08T13:00:03;95938.72;;;5.76;75.01
84878;BME280;75140;47.754;8.840;2024-03-08T13:02:30;95933.09;;;5.79;74.61
84878;BME280;75140;47.754;8.840;2024-03-08T13:04:57;95929.13;;;5.91;74.55
84878;BME280;75140;47.754;8.840;2024-03-08T13:07:23;95923.81;;;5.99;73.58
84878;BME280;75140;47.754;8.840;2024-03-08T13:09:53;95906.16;;;6.07;74.01
84878;BME280;75140;47.754;8.840;2024-03-08T13:12:20;95912.09;;;6.24;74.34